createdAt,value
2023-03-02T00:02:19.347Z,-0.10
2023-03-02T00:04:55.448Z,-0.11
2023-03-02T00:07:32.949Z,0.01
2023-03-02T00:10:03.003Z,-0.10
2023-03-02T00:12:34.323Z,-0.06
2023-03-02T00:15:04.331Z,-0.20
2023-03-02T00:17:33.924Z,-0.24
2023-03-02T00:20:12.833Z,-0.23
2023-03-02T00:22:46.764Z,-0.06
2023-03-02T00:25:18.643Z,0.10
2023-03-02T00:27:48.229Z,-0.12
2023-03-02T00:30:18.199Z,-0.35
2023-03-02T00:32:47.794Z,-0.55
2023-03-02T00:35:17.720Z,-0.29
2023-03-02T00:37:47.356Z,-0.64
2023-03-02T00:40:17.351Z,-0.49
2023-03-02T00:42:47.026Z,-0.72
2023-03-02T00:45:16.707Z,-0.50
2023-03-02T00:47:46.278Z,-0.61
2023-03-02T00:50:15.861Z,-0.36
2023-03-02T00:52:45.418Z,-0.63
2023-03-02T00:55:14.951Z,-0.95
2023-03-02T00:57:44.511Z,-0.83
2023-03-02T01:00:14.654Z,-0.74
2023-03-02T01:02:44.863Z,-0.72
2023-03-02T01:05:14.813Z,-0.50
2023-03-02T01:07:44.559Z,-0.85
2023-03-02T01:10:15.175Z,-0.62
2023-03-02T01:12:44.735Z,-1.04
2023-03-02T01:15:14.079Z,-0.98
2023-03-02T01:17:44.052Z,-1.00
2023-03-02T01:20:15.261Z,-1.20
2023-03-02T01:22:45.015Z,-1.46
2023-03-02T01:25:14.737Z,-1.40
2023-03-02T01:27:44.420Z,-1.42
2023-03-02T01:30:15.110Z,-1.37
2023-03-02T01:32:45.005Z,-1.37
2023-03-02T01:35:14.194Z,-1.39
2023-03-02T01:37:42.900Z,-1.34
2023-03-02T01:40:14.971Z,-1.28
2023-03-02T01:42:58.768Z,-1.21
2023-03-02T01:45:57.396Z,-1.01
2023-03-02T01:48:47.459Z,-1.15
2023-03-02T01:51:22.671Z,-1.34
2023-03-02T01:53:57.411Z,-1.31
2023-03-02T01:56:39.946Z,-1.38
2023-03-02T01:59:20.461Z,-1.38
2023-03-02T02:01:57.125Z,-1.42
2023-03-02T02:04:29.950Z,-1.53
2023-03-02T02:07:06.833Z,-1.40
2023-03-02T02:09:47.363Z,-1.40
2023-03-02T02:12:22.597Z,-1.45
2023-03-02T02:14:51.771Z,-1.28
2023-03-02T02:17:20.880Z,-1.27
2023-03-02T02:20:19.614Z,-1.15
2023-03-02T02:23:51.870Z,-1.30
2023-03-02T02:26:48.221Z,-1.20
2023-03-02T02:29:48.476Z,-1.14
2023-03-02T02:32:27.201Z,-1.21
2023-03-02T02:35:24.526Z,-1.15
2023-03-02T02:37:59.007Z,-1.12
2023-03-02T02:40:57.771Z,-1.26
2023-03-02T02:43:26.042Z,-1.02
2023-03-02T02:45:57.608Z,-1.07
2023-03-02T02:48:31.293Z,-0.99
2023-03-02T02:51:00.681Z,-1.00
2023-03-02T02:53:59.489Z,-1.12
2023-03-02T02:56:35.373Z,-1.12
2023-03-02T02:59:31.802Z,-1.21
2023-03-02T03:02:01.194Z,-1.13
2023-03-02T03:04:33.043Z,-1.04
2023-03-02T03:07:07.302Z,-1.46
2023-03-02T03:09:36.186Z,-1.42
2023-03-02T03:12:23.630Z,-1.78
2023-03-02T03:14:54.092Z,-1.87
2023-03-02T03:17:22.827Z,-1.93
2023-03-02T03:19:52.430Z,-2.11
2023-03-02T03:22:21.249Z,-2.17
2023-03-02T03:24:50.089Z,-1.86
2023-03-02T03:27:18.922Z,-1.68
2023-03-02T03:29:48.608Z,-1.77
2023-03-02T03:32:19.558Z,-1.46
2023-03-02T03:34:49.565Z,-1.23
2023-03-02T03:37:20.879Z,-1.20
2023-03-02T03:39:50.419Z,-1.52
2023-03-02T03:42:20.100Z,-1.70
2023-03-02T03:44:49.771Z,-1.64
2023-03-02T03:47:19.502Z,-1.70
2023-03-02T03:49:49.210Z,-1.52
2023-03-02T03:52:17.092Z,-1.64
2023-03-02T03:54:46.752Z,-1.79
2023-03-02T03:57:16.396Z,-1.65
2023-03-02T03:59:46.012Z,-1.55
2023-03-02T04:02:15.651Z,-1.45
2023-03-02T04:04:54.229Z,-1.47
2023-03-02T04:07:23.778Z,-1.37
2023-03-02T04:10:03.687Z,-1.47
2023-03-02T04:12:37.920Z,-1.32
2023-03-02T04:15:13.239Z,-1.28
2023-03-02T04:17:41.279Z,-1.27
2023-03-02T04:20:16.840Z,-1.19
2023-03-02T04:22:50.348Z,-1.41
2023-03-02T04:25:25.033Z,-1.42
2023-03-02T04:27:55.915Z,-1.85
2023-03-02T04:30:27.408Z,-1.83
2023-03-02T04:32:57.941Z,-1.75
2023-03-02T04:35:28.934Z,-2.01
2023-03-02T04:37:59.156Z,-2.06
2023-03-02T04:40:29.483Z,-2.14
2023-03-02T04:42:59.221Z,-1.79
2023-03-02T04:45:28.939Z,-1.92
2023-03-02T04:47:58.602Z,-2.09
2023-03-02T04:50:28.222Z,-1.97
2023-03-02T04:52:57.923Z,-2.30
2023-03-02T04:55:28.289Z,-2.22
2023-03-02T04:57:58.403Z,-2.08
2023-03-02T05:00:28.989Z,-1.99
2023-03-02T05:02:58.582Z,-1.91
2023-03-02T05:05:29.029Z,-1.96
2023-03-02T05:07:59.331Z,-1.92
2023-03-02T05:10:29.861Z,-1.77
2023-03-02T05:13:02.643Z,-1.75
2023-03-02T05:15:40.195Z,-1.90
2023-03-02T05:18:12.473Z,-2.13
2023-03-02T05:20:42.063Z,-2.02
2023-03-02T05:23:25.872Z,-2.12
2023-03-02T05:25:56.851Z,-1.80
2023-03-02T05:28:27.785Z,-2.04
2023-03-02T05:30:57.428Z,-2.01
2023-03-02T05:33:27.122Z,-1.89
2023-03-02T05:35:57.077Z,-1.86
2023-03-02T05:38:27.742Z,-1.86
2023-03-02T05:40:57.429Z,-1.84
2023-03-02T05:43:27.213Z,-1.63
2023-03-02T05:46:00.619Z,-1.68
2023-03-02T05:48:31.895Z,-1.09
2023-03-02T05:50:59.867Z,-1.00
2023-03-02T05:53:29.453Z,-1.08
2023-03-02T05:55:59.134Z,-0.84
2023-03-02T05:58:28.090Z,-0.52
2023-03-02T06:00:57.588Z,-0.37
2023-03-02T06:03:27.228Z,-0.13
2023-03-02T06:05:56.909Z,1.82
2023-03-02T06:08:25.641Z,3.84
2023-03-02T06:10:58.230Z,2.24
2023-03-02T06:13:28.521Z,2.08
2023-03-02T06:15:58.088Z,4.71
2023-03-02T06:18:27.759Z,6.19
2023-03-02T06:20:57.325Z,6.40
2023-03-02T06:23:27.058Z,6.22
2023-03-02T06:25:57.781Z,7.25
2023-03-02T06:28:27.735Z,7.17
2023-03-02T06:30:59.562Z,8.29
2023-03-02T06:33:30.598Z,8.38
2023-03-02T06:36:00.294Z,7.85
2023-03-02T06:38:30.082Z,9.80
2023-03-02T06:41:00.490Z,10.17
2023-03-02T06:43:29.142Z,9.37
2023-03-02T06:46:00.814Z,9.82
2023-03-02T06:48:30.305Z,9.89
2023-03-02T06:50:59.267Z,10.69
2023-03-02T06:53:28.933Z,11.39
2023-03-02T06:55:58.502Z,11.20
2023-03-02T06:58:27.976Z,10.71
2023-03-02T07:00:57.323Z,10.72
2023-03-02T07:03:26.092Z,11.94
2023-03-02T07:05:54.931Z,12.54
2023-03-02T07:08:24.432Z,13.01
2023-03-02T07:10:53.072Z,12.85
2023-03-02T07:13:22.687Z,13.22
2023-03-02T07:15:52.196Z,14.33
2023-03-02T07:18:21.887Z,10.41
2023-03-02T07:20:51.395Z,7.59
2023-03-02T07:23:20.835Z,7.16
2023-03-02T07:25:49.520Z,6.49
2023-03-02T07:28:18.979Z,6.54
2023-03-02T07:30:47.694Z,6.49
2023-03-02T07:33:16.526Z,6.26
2023-03-02T07:35:45.414Z,6.21
2023-03-02T07:38:15.092Z,6.59
2023-03-02T07:40:44.841Z,6.92
2023-03-02T07:43:13.689Z,6.98
2023-03-02T07:45:43.175Z,7.13
2023-03-02T07:48:12.083Z,6.86
2023-03-02T07:50:40.705Z,7.51
2023-03-02T07:53:09.825Z,6.99
2023-03-02T07:55:42.313Z,7.17
2023-03-02T07:58:11.024Z,6.87
2023-03-02T08:00:41.809Z,7.32
2023-03-02T08:03:10.532Z,7.46
2023-03-02T08:05:38.451Z,7.43
2023-03-02T08:08:06.998Z,7.15
2023-03-02T08:10:36.196Z,7.53
2023-03-02T08:13:06.252Z,7.72
2023-03-02T08:15:34.031Z,7.42
2023-03-02T08:18:02.744Z,8.23
2023-03-02T08:20:30.599Z,7.26
2023-03-02T08:22:59.223Z,7.10
2023-03-02T08:25:26.966Z,7.44
2023-03-02T08:27:54.648Z,7.70
2023-03-02T08:30:22.590Z,7.84
2023-03-02T08:32:50.391Z,7.88
2023-03-02T08:35:19.162Z,8.03
2023-03-02T08:37:46.871Z,7.86
2023-03-02T08:40:14.876Z,7.81
2023-03-02T08:42:43.484Z,7.83
2023-03-02T08:45:11.692Z,8.43
2023-03-02T08:47:39.513Z,8.18
2023-03-02T08:50:09.213Z,8.24
2023-03-02T08:52:37.905Z,8.34
2023-03-02T08:55:08.289Z,8.67
2023-03-02T08:57:37.130Z,9.00
2023-03-02T09:00:09.298Z,8.69
2023-03-02T09:02:38.210Z,8.96
2023-03-02T09:05:06.332Z,9.16
2023-03-02T09:07:34.980Z,9.12
2023-03-02T09:10:04.193Z,9.01
2023-03-02T09:12:31.916Z,9.02
2023-03-02T09:15:00.575Z,9.16
2023-03-02T09:17:29.132Z,9.18
2023-03-02T09:19:57.842Z,8.88
2023-03-02T09:22:26.387Z,9.74
2023-03-02T09:24:55.096Z,10.10
2023-03-02T09:27:23.768Z,9.57
2023-03-02T09:29:51.451Z,9.34
2023-03-02T09:32:19.346Z,9.22
2023-03-02T09:34:49.098Z,9.70
2023-03-02T09:37:18.573Z,9.77
2023-03-02T09:39:47.265Z,9.91
2023-03-02T09:42:54.777Z,9.94
2023-03-02T09:45:52.900Z,9.71
2023-03-02T09:49:12.810Z,10.54
2023-03-02T09:52:46.817Z,10.72
2023-03-02T09:55:22.658Z,10.67
2023-03-02T09:57:53.119Z,10.41
2023-03-02T10:00:41.201Z,10.20
2023-03-02T10:03:38.445Z,9.86
2023-03-02T10:06:07.286Z,10.17
2023-03-02T10:08:42.939Z,10.27
2023-03-02T10:12:01.082Z,10.66
2023-03-02T10:14:49.772Z,10.47
2023-03-02T10:17:55.326Z,10.82
2023-03-02T10:20:51.833Z,11.26
2023-03-02T10:24:01.761Z,11.17
2023-03-02T10:26:48.403Z,11.12
2023-03-02T10:29:46.992Z,10.90
2023-03-02T10:32:22.771Z,11.40
2023-03-02T10:34:54.104Z,11.19
2023-03-02T10:37:29.100Z,11.26
2023-03-02T10:39:57.484Z,11.83
2023-03-02T10:42:38.177Z,11.53
2023-03-02T10:45:33.647Z,11.64
2023-03-02T10:48:12.345Z,11.98
2023-03-02T10:50:44.570Z,12.03
2023-03-02T10:53:20.218Z,11.93
2023-03-02T10:55:52.991Z,12.00
2023-03-02T10:58:33.071Z,12.07
2023-03-02T11:01:18.470Z,11.66
2023-03-02T11:04:02.524Z,12.14
2023-03-02T11:06:31.862Z,11.83
2023-03-02T11:09:07.224Z,11.82
2023-03-02T11:11:36.724Z,11.57
2023-03-02T11:14:17.421Z,11.72
2023-03-02T11:16:47.930Z,12.27
2023-03-02T11:19:35.284Z,12.12
2023-03-02T11:22:32.680Z,12.14
2023-03-02T11:25:12.860Z,12.09
2023-03-02T11:27:45.545Z,12.52
2023-03-02T11:30:22.753Z,12.48
2023-03-02T11:33:02.001Z,12.51
2023-03-02T11:35:58.416Z,12.43
2023-03-02T11:38:52.945Z,12.37
2023-03-02T11:41:36.668Z,12.37
2023-03-02T11:44:19.758Z,12.52
2023-03-02T11:46:59.234Z,12.60
2023-03-02T11:49:44.665Z,12.92
2023-03-02T11:52:46.867Z,12.90
2023-03-02T11:55:25.163Z,12.54
2023-03-02T12:00:51.934Z,12.54
2023-03-02T12:03:33.676Z,12.33
2023-03-02T12:06:27.998Z,12.57
2023-03-02T12:09:24.949Z,13.03
2023-03-02T12:12:22.655Z,12.84
2023-03-02T12:14:52.571Z,12.80
2023-03-02T12:17:27.224Z,12.57
2023-03-02T12:20:07.941Z,12.57
2023-03-02T12:22:38.871Z,12.65
2023-03-02T12:25:40.352Z,12.44
2023-03-02T12:28:30.231Z,12.40
2023-03-02T12:31:13.243Z,12.80
2023-03-02T12:33:51.168Z,12.67
2023-03-02T12:36:43.238Z,12.56
2023-03-02T12:39:45.109Z,12.48
2023-03-02T12:42:51.251Z,12.54
2023-03-02T12:45:56.384Z,12.74
2023-03-02T12:48:48.989Z,13.20
2023-03-02T12:51:25.945Z,12.45
2023-03-02T12:54:07.839Z,12.91
2023-03-02T12:56:36.742Z,13.10
2023-03-02T12:59:05.862Z,13.03
2023-03-02T13:01:35.014Z,13.05
2023-03-02T13:04:03.654Z,13.08
2023-03-02T13:06:33.933Z,12.83
2023-03-02T13:09:02.901Z,12.78
2023-03-02T13:11:37.332Z,12.45
2023-03-02T13:14:28.686Z,13.09
2023-03-02T13:17:04.779Z,12.87
2023-03-02T13:19:34.259Z,12.72
2023-03-02T13:22:02.292Z,12.85
2023-03-02T13:24:46.393Z,12.69
2023-03-02T13:27:24.707Z,12.68
2023-03-02T13:29:58.466Z,12.60
2023-03-02T13:32:39.552Z,12.78
2023-03-02T13:35:26.701Z,12.67
2023-03-02T13:38:12.287Z,12.56
2023-03-02T13:40:53.623Z,12.60
2023-03-02T13:43:36.856Z,12.59
2023-03-02T13:46:13.047Z,12.40
2023-03-02T13:48:41.752Z,12.45
2023-03-02T13:51:19.511Z,12.50
2023-03-02T13:54:06.456Z,12.39
2023-03-02T13:56:40.495Z,12.59
2023-03-02T13:59:16.560Z,12.41
2023-03-02T14:01:45.060Z,12.10
2023-03-02T14:04:24.222Z,12.42
2023-03-02T14:06:55.527Z,12.23
2023-03-02T14:09:24.140Z,12.38
2023-03-02T14:11:56.132Z,12.25
2023-03-02T14:14:29.313Z,12.57
2023-03-02T14:16:57.414Z,12.71
2023-03-02T14:19:25.156Z,12.78
2023-03-02T14:21:52.928Z,12.50
2023-03-02T14:24:20.617Z,12.34
2023-03-02T14:26:49.705Z,12.28
2023-03-02T14:29:34.798Z,12.50
2023-03-02T14:32:04.824Z,12.37
2023-03-02T14:34:36.994Z,12.46
2023-03-02T14:37:14.493Z,12.22
2023-03-02T14:39:55.342Z,12.19
2023-03-02T14:42:24.360Z,12.36
2023-03-02T14:44:53.653Z,12.18
2023-03-02T14:47:24.229Z,12.29
2023-03-02T14:49:53.748Z,12.12
2023-03-02T14:52:43.094Z,12.13
2023-03-02T14:55:25.978Z,12.11
2023-03-02T14:58:00.190Z,12.21
2023-03-02T15:00:31.718Z,12.08
2023-03-02T15:03:01.128Z,11.99
2023-03-02T15:05:28.959Z,11.60
2023-03-02T15:07:58.736Z,11.74
2023-03-02T15:10:27.753Z,11.83
2023-03-02T15:12:56.394Z,11.84
2023-03-02T15:15:26.367Z,11.64
2023-03-02T15:17:55.061Z,11.78
2023-03-02T15:20:23.683Z,11.49
2023-03-02T15:22:53.663Z,11.54
2023-03-02T15:25:29.245Z,11.57
2023-03-02T15:27:58.827Z,11.43
2023-03-02T15:30:30.531Z,11.35
2023-03-02T15:32:59.691Z,11.25
2023-03-02T15:35:29.671Z,11.17
2023-03-02T15:38:02.575Z,11.13
2023-03-02T15:40:31.231Z,10.96
2023-03-02T15:42:59.393Z,10.96
2023-03-02T15:45:28.985Z,10.88
2023-03-02T15:47:57.645Z,10.90
2023-03-02T15:50:26.333Z,10.87
2023-03-02T15:52:57.534Z,10.69
2023-03-02T15:55:27.231Z,10.47
2023-03-02T15:57:58.273Z,10.37
2023-03-02T16:00:27.957Z,10.33
2023-03-02T16:02:57.454Z,10.31
2023-03-02T16:05:26.072Z,10.07
2023-03-02T16:07:55.542Z,10.09
2023-03-02T16:10:27.440Z,9.95
2023-03-02T16:12:56.975Z,9.79
2023-03-02T16:15:26.381Z,9.66
2023-03-02T16:17:55.826Z,9.45
2023-03-02T16:20:24.744Z,9.30
2023-03-02T16:22:53.344Z,9.29
2023-03-02T16:25:22.758Z,9.15
2023-03-02T16:27:54.375Z,8.94
2023-03-02T16:30:23.916Z,8.81
2023-03-02T16:32:57.867Z,8.65
2023-03-02T16:35:29.181Z,8.48
2023-03-02T16:37:59.127Z,8.49
2023-03-02T16:40:29.989Z,8.31
2023-03-02T16:42:59.503Z,8.08
2023-03-02T16:45:29.035Z,7.95
2023-03-02T16:47:58.488Z,7.95
2023-03-02T16:50:28.022Z,7.97
2023-03-02T16:52:59.247Z,7.90
2023-03-02T16:55:29.056Z,7.86
2023-03-02T16:57:57.700Z,7.64
2023-03-02T17:00:28.057Z,7.65
2023-03-02T17:02:57.802Z,7.61
2023-03-02T17:05:27.326Z,7.60
2023-03-02T17:07:58.942Z,7.29
2023-03-02T17:10:28.849Z,7.09
2023-03-02T17:12:58.386Z,6.95
2023-03-02T17:15:28.046Z,7.09
2023-03-02T17:17:57.635Z,7.01
2023-03-02T17:20:27.977Z,6.87
2023-03-02T17:22:57.426Z,6.91
2023-03-02T17:25:27.271Z,6.82
2023-03-02T17:27:57.768Z,6.80
2023-03-02T17:30:30.267Z,6.77
2023-03-02T17:32:59.728Z,6.73
2023-03-02T17:35:29.333Z,6.72
2023-03-02T17:37:58.998Z,6.81
2023-03-02T17:40:28.717Z,6.79
2023-03-02T17:42:58.221Z,6.77
2023-03-02T17:45:29.043Z,6.89
2023-03-02T17:47:59.679Z,6.91
2023-03-02T17:50:33.942Z,6.84
2023-03-02T17:53:03.734Z,6.71
2023-03-02T17:55:33.349Z,6.67
2023-03-02T17:58:02.844Z,6.72
2023-03-02T18:00:32.446Z,6.55
2023-03-02T18:03:02.069Z,6.38
2023-03-02T18:05:31.641Z,6.30
2023-03-02T18:08:01.179Z,6.43
2023-03-02T18:10:30.848Z,6.33
2023-03-02T18:13:00.365Z,6.30
2023-03-02T18:15:31.528Z,6.17
2023-03-02T18:18:01.383Z,6.16
2023-03-02T18:20:31.771Z,6.04
2023-03-02T18:23:02.348Z,6.04
2023-03-02T18:25:31.958Z,5.93
2023-03-02T18:28:01.559Z,5.90
2023-03-02T18:30:31.417Z,5.80
2023-03-02T18:33:01.477Z,5.76
2023-03-02T18:35:31.469Z,5.63
2023-03-02T18:38:01.130Z,5.61
2023-03-02T18:40:30.901Z,5.62
2023-03-02T18:43:00.530Z,5.55
2023-03-02T18:45:33.152Z,5.50
2023-03-02T18:48:02.882Z,5.42
2023-03-02T18:50:32.704Z,5.25
2023-03-02T18:53:02.318Z,5.15
2023-03-02T18:55:32.284Z,5.04
2023-03-02T18:58:01.979Z,5.06
2023-03-02T19:00:32.027Z,5.06
2023-03-02T19:03:03.305Z,4.99
2023-03-02T19:05:32.898Z,4.96
2023-03-02T19:08:04.793Z,4.87
2023-03-02T19:10:32.680Z,4.86
2023-03-02T19:13:02.622Z,4.92
2023-03-02T19:15:34.901Z,4.80
2023-03-02T19:18:04.897Z,4.53
2023-03-02T19:20:35.143Z,4.62
2023-03-02T19:23:04.784Z,4.55
2023-03-02T19:25:35.303Z,4.53
2023-03-02T19:28:06.921Z,4.60
2023-03-02T19:30:36.936Z,4.61
2023-03-02T19:33:09.369Z,4.53
2023-03-02T19:35:39.588Z,4.36
2023-03-02T19:38:10.912Z,4.44
2023-03-02T19:40:40.541Z,4.52
2023-03-02T19:43:10.148Z,4.21
2023-03-02T19:45:39.886Z,4.06
2023-03-02T19:48:13.722Z,4.10
2023-03-02T19:50:44.413Z,4.11
2023-03-02T19:53:15.998Z,3.79
2023-03-02T19:55:46.593Z,3.85
2023-03-02T19:58:17.586Z,3.84
2023-03-02T20:00:47.949Z,3.88
2023-03-02T20:03:17.752Z,4.07
2023-03-02T20:05:47.380Z,4.17
2023-03-02T20:08:21.696Z,4.18
2023-03-02T20:10:52.600Z,4.16
2023-03-02T20:13:22.239Z,4.23
2023-03-02T20:15:52.668Z,4.23
2023-03-02T20:18:24.445Z,4.35
2023-03-02T20:20:55.074Z,4.32
2023-03-02T20:23:24.738Z,4.51
2023-03-02T20:25:55.813Z,4.51
2023-03-02T20:28:26.729Z,4.48
2023-03-02T20:31:02.255Z,4.52
2023-03-02T20:33:44.352Z,4.40
2023-03-02T20:36:19.032Z,4.43
2023-03-02T20:39:03.226Z,4.39
2023-03-02T20:41:33.190Z,4.45
2023-03-02T20:44:04.827Z,4.38
2023-03-02T20:46:46.871Z,4.40
2023-03-02T20:49:17.445Z,4.31
2023-03-02T20:51:53.016Z,4.33
2023-03-02T20:54:32.872Z,4.11
2023-03-02T20:57:02.843Z,3.81
2023-03-02T20:59:33.304Z,3.58
2023-03-02T21:02:03.696Z,3.63
2023-03-02T21:04:34.658Z,3.72
2023-03-02T21:07:04.357Z,3.92
2023-03-02T21:09:33.886Z,3.90
2023-03-02T21:12:08.905Z,4.00
2023-03-02T21:14:40.614Z,4.09
2023-03-02T21:17:12.100Z,3.89
2023-03-02T21:19:41.929Z,4.04
2023-03-02T21:22:11.603Z,3.91
2023-03-02T21:24:41.371Z,3.96
2023-03-02T21:27:10.989Z,3.92
2023-03-02T21:29:40.794Z,3.99
2023-03-02T21:32:10.497Z,3.94
2023-03-02T21:34:44.659Z,3.91
2023-03-02T21:37:14.763Z,3.91
2023-03-02T21:39:44.376Z,3.83
2023-03-02T21:42:14.005Z,3.91
2023-03-02T21:44:43.673Z,3.86
2023-03-02T21:47:15.148Z,3.87
2023-03-02T21:49:44.706Z,3.84
2023-03-02T21:52:14.330Z,3.77
2023-03-02T21:54:43.967Z,3.83
2023-03-02T21:57:13.558Z,3.85
2023-03-02T21:59:43.158Z,3.85
2023-03-02T22:02:14.046Z,3.77
2023-03-02T22:04:43.586Z,3.69
2023-03-02T22:07:13.169Z,3.65
2023-03-02T22:09:42.958Z,3.63
2023-03-02T22:12:15.175Z,3.73
2023-03-02T22:14:43.834Z,3.78
2023-03-02T22:17:27.003Z,3.85
2023-03-02T22:19:56.692Z,3.70
2023-03-02T22:22:30.653Z,3.54
2023-03-02T22:25:00.730Z,3.53
2023-03-02T22:27:34.787Z,3.49
2023-03-02T22:30:22.730Z,3.45
2023-03-02T22:32:52.284Z,3.51
2023-03-02T22:35:27.541Z,3.60
2023-03-02T22:38:11.284Z,3.57
2023-03-02T22:40:41.487Z,3.48
2023-03-02T22:43:33.163Z,3.50
2023-03-02T22:46:08.622Z,3.49
2023-03-02T22:48:39.145Z,3.49
2023-03-02T22:51:21.048Z,3.45
2023-03-02T22:53:57.310Z,3.50
2023-03-02T22:56:44.650Z,3.50
2023-03-02T22:59:21.742Z,3.38
2023-03-02T23:02:08.666Z,3.45
2023-03-02T23:04:39.666Z,3.20
2023-03-02T23:07:21.958Z,3.28
2023-03-02T23:09:51.497Z,3.24
2023-03-02T23:12:28.037Z,3.11
2023-03-02T23:14:59.580Z,3.05
2023-03-02T23:17:39.544Z,3.08
2023-03-02T23:20:13.776Z,3.18
2023-03-02T23:22:44.589Z,3.14
2023-03-02T23:25:14.756Z,3.21
2023-03-02T23:27:44.594Z,3.19
2023-03-02T23:30:17.939Z,3.28
2023-03-02T23:32:47.491Z,3.39
2023-03-02T23:35:17.449Z,3.34
2023-03-02T23:37:46.965Z,3.48
2023-03-02T23:40:47.506Z,3.55
2023-03-02T23:43:17.069Z,3.54
2023-03-02T23:45:47.425Z,3.60
2023-03-02T23:48:17.860Z,3.54
2023-03-02T23:50:47.445Z,3.67
2023-03-02T23:53:17.635Z,3.66
2023-03-02T23:55:54.015Z,3.60
2023-03-02T23:58:24.354Z,3.58
